createdAt,value
2019-05-18T00:00:13.372Z,35.50
2019-05-18T00:02:43.934Z,37.53
2019-05-18T00:05:15.198Z,37.88
2019-05-18T00:07:46.406Z,39.42
2019-05-18T00:10:16.761Z,37.28
2019-05-18T00:12:47.228Z,36.23
2019-05-18T00:15:17.855Z,36.65
2019-05-18T00:17:48.190Z,41.53
2019-05-18T00:20:18.544Z,37.33
2019-05-18T00:22:48.883Z,36.77
2019-05-18T00:25:19.607Z,36.65
2019-05-18T00:27:49.915Z,35.78
2019-05-18T00:30:20.426Z,34.93
2019-05-18T00:32:50.679Z,33.35
2019-05-18T00:35:21.100Z,32.17
2019-05-18T00:37:51.293Z,39.97
2019-05-18T00:40:21.608Z,37.45
2019-05-18T00:42:52.071Z,34.03
2019-05-18T00:45:22.341Z,36.83
2019-05-18T00:47:52.617Z,38.30
2019-05-18T00:50:23.077Z,38.00
2019-05-18T00:52:53.276Z,36.48
2019-05-18T00:55:23.793Z,35.10
2019-05-18T00:57:54.249Z,36.03
2019-05-18T01:00:25.465Z,34.73
2019-05-18T01:02:55.717Z,35.17
2019-05-18T01:05:25.984Z,33.83
2019-05-18T01:07:57.357Z,34.38
2019-05-18T01:10:29.359Z,35.10
2019-05-18T01:12:59.641Z,32.63
2019-05-18T01:15:30.056Z,40.38
2019-05-18T01:18:02.333Z,34.13
2019-05-18T01:20:32.467Z,35.50
2019-05-18T01:23:02.987Z,35.85
2019-05-18T01:25:34.423Z,32.75
2019-05-18T01:28:04.918Z,31.93
2019-05-18T01:30:35.479Z,36.90
2019-05-18T01:33:05.812Z,32.98
2019-05-18T01:35:36.077Z,31.95
2019-05-18T01:38:07.712Z,44.45
2019-05-18T01:40:38.271Z,35.92
2019-05-18T01:43:08.505Z,36.88
2019-05-18T01:45:38.739Z,32.17
2019-05-18T01:48:13.708Z,32.63
2019-05-18T01:50:41.164Z,31.62
2019-05-18T01:53:11.323Z,34.63
2019-05-18T01:55:41.571Z,32.67
2019-05-18T01:58:11.825Z,33.45
2019-05-18T02:00:42.482Z,33.55
2019-05-18T02:03:12.744Z,34.98
2019-05-18T02:05:43.021Z,33.60
2019-05-18T02:08:13.380Z,36.40
2019-05-18T02:10:43.895Z,35.30
2019-05-18T02:13:14.091Z,32.38
2019-05-18T02:15:44.383Z,35.17
2019-05-18T02:18:28.147Z,34.73
2019-05-18T02:20:46.906Z,33.70
2019-05-18T02:23:17.668Z,33.42
2019-05-18T02:25:47.972Z,32.73
2019-05-18T02:28:18.266Z,38.43
2019-05-18T02:30:48.567Z,35.68
2019-05-18T02:33:19.449Z,35.48
2019-05-18T02:35:49.784Z,34.23
2019-05-18T02:38:20.232Z,32.95
2019-05-18T02:40:50.813Z,33.30
2019-05-18T02:43:21.115Z,34.85
2019-05-18T02:45:51.395Z,31.97
2019-05-18T02:48:21.691Z,32.90
2019-05-18T02:50:52.136Z,35.38
2019-05-18T02:53:22.571Z,36.53
2019-05-18T02:55:53.545Z,35.83
2019-05-18T02:58:23.932Z,34.57
2019-05-18T03:00:54.262Z,35.73
2019-05-18T03:03:24.795Z,35.73
2019-05-18T03:05:55.251Z,34.88
2019-05-18T03:08:25.715Z,35.50
2019-05-18T03:10:57.489Z,35.75
2019-05-18T03:13:27.731Z,34.83
2019-05-18T03:15:58.044Z,34.55
2019-05-18T03:18:28.368Z,34.40
2019-05-18T03:20:58.682Z,42.10
2019-05-18T03:23:29.376Z,35.95
2019-05-18T03:25:59.863Z,35.98
2019-05-18T03:28:30.114Z,35.80
2019-05-18T03:31:00.519Z,36.98
2019-05-18T03:33:31.123Z,44.42
2019-05-18T03:36:01.555Z,41.05
2019-05-18T03:38:31.854Z,37.48
2019-05-18T03:41:02.207Z,36.63
2019-05-18T03:43:32.497Z,42.88
2019-05-18T03:46:02.982Z,46.30
2019-05-18T03:48:33.271Z,44.50
2019-05-18T03:51:03.545Z,47.05
2019-05-18T03:53:35.271Z,45.25
2019-05-18T03:56:06.549Z,48.38
2019-05-18T03:58:36.901Z,47.30
2019-05-18T04:01:07.209Z,48.23
2019-05-18T04:03:37.590Z,42.43
2019-05-18T04:06:08.079Z,42.43
2019-05-18T04:08:38.359Z,40.43
2019-05-18T04:11:08.720Z,45.05
2019-05-18T04:13:39.050Z,49.98
2019-05-18T04:16:09.509Z,48.78
2019-05-18T04:18:39.799Z,49.67
2019-05-18T04:21:10.197Z,50.10
2019-05-18T04:23:40.789Z,49.75
2019-05-18T04:26:11.166Z,55.05
2019-05-18T04:28:41.548Z,59.15
2019-05-18T04:31:11.978Z,60.60
2019-05-18T04:33:42.296Z,55.20
2019-05-18T04:36:13.793Z,46.13
2019-05-18T04:38:45.161Z,38.48
2019-05-18T04:41:15.464Z,38.58
2019-05-18T04:43:45.767Z,35.43
2019-05-18T04:46:16.078Z,31.80
2019-05-18T04:48:46.323Z,28.90
2019-05-18T04:51:16.626Z,27.42
2019-05-18T04:53:46.976Z,32.83
2019-05-18T04:56:17.662Z,35.38
2019-05-18T04:58:48.053Z,25.52
2019-05-18T05:01:19.048Z,22.27
2019-05-18T05:03:49.535Z,27.90
2019-05-18T05:06:20.476Z,18.15
2019-05-18T05:08:50.871Z,15.90
2019-05-18T05:11:21.474Z,14.10
2019-05-18T05:13:51.730Z,16.95
2019-05-18T05:16:23.513Z,17.73
2019-05-18T05:18:53.808Z,18.10
2019-05-18T05:21:24.217Z,19.10
2019-05-18T05:23:54.383Z,17.23
2019-05-18T05:26:24.735Z,20.62
2019-05-18T05:28:55.006Z,20.17
2019-05-18T05:31:25.304Z,19.50
2019-05-18T05:33:55.571Z,23.18
2019-05-18T05:36:26.246Z,20.45
2019-05-18T05:38:56.668Z,19.63
2019-05-18T05:41:27.998Z,20.17
2019-05-18T05:43:58.649Z,16.15
2019-05-18T05:46:29.152Z,16.05
2019-05-18T05:48:59.705Z,16.97
2019-05-18T05:51:30.066Z,24.70
2019-05-18T05:54:00.498Z,23.38
2019-05-18T05:56:30.729Z,33.08
2019-05-18T05:59:01.513Z,21.02
2019-05-18T06:01:31.800Z,19.47
2019-05-18T06:04:02.101Z,17.82
2019-05-18T06:06:32.350Z,21.60
2019-05-18T06:09:03.024Z,28.35
2019-05-18T06:11:37.529Z,20.95
2019-05-18T06:14:07.792Z,19.12
2019-05-18T06:16:38.117Z,15.35
2019-05-18T06:19:08.518Z,16.75
2019-05-18T06:21:38.869Z,19.62
2019-05-18T06:24:10.187Z,24.07
2019-05-18T06:26:40.447Z,21.62
2019-05-18T06:29:10.942Z,42.60
2019-05-18T06:31:41.195Z,24.07
2019-05-18T06:34:11.455Z,24.30
2019-05-18T06:36:41.708Z,21.60
2019-05-18T06:39:12.146Z,24.67
2019-05-18T06:41:42.981Z,20.97
2019-05-18T06:44:13.275Z,24.85
2019-05-18T06:46:43.658Z,25.27
2019-05-18T06:49:13.910Z,26.10
2019-05-18T06:51:44.267Z,24.75
2019-05-18T06:54:14.642Z,27.82
2019-05-18T06:56:45.138Z,30.17
2019-05-18T06:59:16.564Z,30.03
2019-05-18T07:01:47.621Z,29.42
2019-05-18T07:04:17.869Z,25.57
2019-05-18T07:06:48.126Z,28.95
2019-05-18T07:09:18.484Z,26.23
2019-05-18T07:11:49.220Z,31.07
2019-05-18T07:14:25.899Z,26.27
2019-05-18T07:16:51.477Z,29.70
2019-05-18T07:19:22.130Z,24.27
2019-05-18T07:21:52.726Z,25.65
2019-05-18T07:24:23.004Z,30.45
2019-05-18T07:26:53.424Z,29.37
2019-05-18T07:29:23.710Z,24.43
2019-05-18T07:31:54.422Z,29.77
2019-05-18T07:34:26.827Z,29.10
2019-05-18T07:36:57.625Z,30.43
2019-05-18T07:39:28.212Z,24.85
2019-05-18T07:41:58.446Z,31.20
2019-05-18T07:44:28.992Z,29.23
2019-05-18T07:46:59.800Z,29.50
2019-05-18T07:49:31.272Z,28.40
2019-05-18T07:52:01.602Z,29.42
2019-05-18T07:54:32.339Z,26.27
2019-05-18T07:57:02.665Z,25.40
2019-05-18T07:59:32.946Z,24.63
2019-05-18T08:02:03.204Z,22.10
2019-05-18T08:04:33.649Z,27.90
2019-05-18T08:07:03.959Z,21.82
2019-05-18T08:09:34.327Z,26.12
2019-05-18T08:12:05.340Z,27.65
2019-05-18T08:14:35.655Z,27.15
2019-05-18T08:17:06.005Z,22.75
2019-05-18T08:19:36.438Z,23.10
2019-05-18T08:22:06.703Z,27.07
2019-05-18T08:24:37.774Z,26.73
2019-05-18T08:27:08.151Z,28.70
2019-05-18T08:29:39.036Z,25.77
2019-05-18T08:32:09.342Z,24.18
2019-05-18T08:34:39.663Z,25.55
2019-05-18T08:37:10.967Z,27.55
2019-05-18T08:39:41.293Z,25.92
2019-05-18T08:42:11.489Z,26.70
2019-05-18T08:44:41.963Z,26.05
2019-05-18T08:47:12.915Z,24.45
2019-05-18T08:49:43.278Z,23.40
2019-05-18T08:52:13.505Z,27.02
2019-05-18T08:54:44.397Z,25.77
2019-05-18T08:57:14.652Z,25.68
2019-05-18T08:59:44.882Z,25.27
2019-05-18T09:02:15.674Z,23.98
2019-05-18T09:04:45.985Z,23.92
2019-05-18T09:07:16.239Z,24.63
2019-05-18T09:09:46.546Z,20.70
2019-05-18T09:12:17.178Z,16.32
2019-05-18T09:14:47.534Z,20.10
2019-05-18T09:17:18.242Z,16.95
2019-05-18T09:19:49.858Z,20.57
2019-05-18T09:22:23.129Z,17.12
2019-05-18T09:24:52.383Z,17.32
2019-05-18T09:27:24.243Z,17.17
2019-05-18T09:29:54.538Z,14.63
2019-05-18T09:32:24.746Z,13.53
2019-05-18T09:34:55.058Z,12.60
2019-05-18T09:37:25.533Z,12.65
2019-05-18T09:39:55.824Z,11.80
2019-05-18T09:42:26.079Z,14.78
2019-05-18T09:44:56.359Z,11.65
2019-05-18T09:47:26.718Z,12.00
2019-05-18T09:49:57.037Z,12.68
2019-05-18T09:52:44.035Z,17.10
2019-05-18T09:54:59.165Z,9.15
2019-05-18T09:57:29.396Z,14.85
2019-05-18T09:59:59.586Z,12.03
2019-05-18T10:02:29.839Z,9.48
2019-05-18T10:05:00.135Z,10.68
2019-05-18T10:07:32.494Z,12.93
2019-05-18T10:10:02.751Z,10.30
2019-05-18T10:12:33.079Z,10.98
2019-05-18T10:15:03.574Z,9.38
2019-05-18T10:17:34.289Z,11.63
2019-05-18T10:20:04.606Z,10.30
2019-05-18T10:22:34.859Z,14.98
2019-05-18T10:25:06.501Z,12.05
2019-05-18T10:27:36.796Z,11.45
2019-05-18T10:30:07.777Z,12.75
2019-05-18T10:32:38.418Z,13.18
2019-05-18T10:35:09.908Z,12.05
2019-05-18T10:37:40.140Z,11.25
2019-05-18T10:40:11.228Z,13.58
2019-05-18T10:42:41.478Z,13.68
2019-05-18T10:45:12.852Z,14.10
2019-05-18T10:47:43.459Z,10.50
2019-05-18T10:50:14.574Z,11.10
2019-05-18T10:52:46.049Z,13.75
2019-05-18T10:55:16.775Z,14.55
2019-05-18T10:57:47.143Z,11.97
2019-05-18T11:00:18.945Z,15.83
2019-05-18T11:02:49.270Z,12.65
2019-05-18T11:05:19.850Z,14.60
2019-05-18T11:07:50.136Z,13.88
2019-05-18T11:10:21.782Z,16.60
2019-05-18T11:12:52.107Z,15.28
2019-05-18T11:15:23.183Z,10.90
2019-05-18T11:17:53.472Z,14.40
2019-05-18T11:20:24.082Z,15.30
2019-05-18T11:22:54.326Z,15.23
2019-05-18T11:25:25.072Z,16.10
2019-05-18T11:27:55.306Z,13.62
2019-05-18T11:30:25.596Z,13.85
2019-05-18T11:32:56.018Z,14.87
2019-05-18T11:35:26.942Z,15.48
2019-05-18T11:37:57.599Z,14.23
2019-05-18T11:40:27.873Z,12.95
2019-05-18T11:42:58.459Z,16.37
2019-05-18T11:45:29.208Z,12.75
2019-05-18T11:47:59.470Z,14.15
2019-05-18T11:50:29.779Z,11.83
2019-05-18T11:53:00.826Z,13.38
2019-05-18T11:55:31.395Z,12.33
2019-05-18T11:58:01.667Z,16.07
2019-05-18T12:00:32.163Z,12.63
2019-05-18T12:03:02.424Z,17.20
2019-05-18T12:05:33.521Z,12.53
2019-05-18T12:08:03.788Z,14.05
2019-05-18T12:10:34.261Z,13.05
2019-05-18T12:13:04.583Z,13.08
2019-05-18T12:15:35.339Z,13.60
2019-05-18T12:18:05.606Z,13.78
2019-05-18T12:20:36.167Z,15.72
2019-05-18T12:23:08.517Z,15.70
2019-05-18T12:25:38.323Z,13.72
2019-05-18T12:28:08.593Z,13.78
2019-05-18T12:30:38.953Z,16.12
2019-05-18T12:33:09.192Z,14.40
2019-05-18T12:35:39.432Z,14.47
2019-05-18T12:38:10.376Z,13.15
2019-05-18T12:40:41.654Z,12.68
2019-05-18T12:43:11.940Z,14.50
2019-05-18T12:45:42.918Z,17.17
2019-05-18T12:48:13.179Z,14.50
2019-05-18T12:50:43.529Z,14.93
2019-05-18T12:53:14.207Z,15.25
2019-05-18T12:55:46.203Z,17.42
2019-05-18T12:58:16.807Z,15.65
2019-05-18T13:00:47.132Z,13.22
2019-05-18T13:03:18.994Z,14.00
2019-05-18T13:05:49.971Z,13.30
2019-05-18T13:08:20.269Z,12.50
2019-05-18T13:10:50.975Z,17.90
2019-05-18T13:13:21.234Z,16.12
2019-05-18T13:15:52.082Z,16.85
2019-05-18T13:18:26.317Z,12.70
2019-05-18T13:20:56.544Z,17.90
2019-05-18T13:23:27.237Z,14.53
2019-05-18T13:25:57.521Z,16.87
2019-05-18T13:28:27.785Z,13.40
2019-05-18T13:30:58.047Z,15.23
2019-05-18T13:33:28.263Z,14.00
2019-05-18T13:35:58.577Z,13.78
2019-05-18T13:38:29.263Z,14.58
2019-05-18T13:40:59.812Z,14.63
2019-05-18T13:43:29.970Z,13.70
2019-05-18T13:46:00.539Z,12.45
2019-05-18T13:48:30.783Z,12.53
2019-05-18T13:51:01.051Z,12.60
2019-05-18T13:53:31.297Z,14.20
2019-05-18T13:56:01.555Z,14.45
2019-05-18T13:58:31.863Z,11.83
2019-05-18T14:01:02.447Z,14.90
2019-05-18T14:03:32.710Z,11.95
2019-05-18T14:06:04.032Z,10.15
2019-05-18T14:08:35.310Z,12.88
2019-05-18T14:11:05.829Z,10.53
2019-05-18T14:13:36.220Z,10.85
2019-05-18T14:16:06.543Z,12.82
2019-05-18T14:18:36.892Z,12.15
2019-05-18T14:21:07.411Z,9.83
2019-05-18T14:23:37.581Z,10.40
2019-05-18T14:26:07.927Z,13.35
2019-05-18T14:28:38.594Z,10.45
2019-05-18T14:31:08.850Z,15.48
2019-05-18T14:33:39.340Z,11.18
2019-05-18T14:36:09.638Z,10.70
2019-05-18T14:38:40.114Z,10.08
2019-05-18T14:41:10.376Z,11.95
2019-05-18T14:43:41.809Z,10.90
2019-05-18T14:46:12.546Z,13.43
2019-05-18T14:48:42.820Z,11.78
2019-05-18T14:51:13.222Z,11.08
2019-05-18T14:53:43.478Z,12.25
2019-05-18T14:56:13.740Z,11.03
2019-05-18T14:58:44.139Z,12.05
2019-05-18T15:01:14.409Z,13.65
2019-05-18T15:03:45.669Z,11.15
2019-05-18T15:06:15.923Z,9.78
2019-05-18T15:08:47.402Z,12.82
2019-05-18T15:11:17.650Z,12.18
2019-05-18T15:13:48.130Z,12.05
2019-05-18T15:16:19.038Z,13.60
2019-05-18T15:18:49.362Z,10.72
2019-05-18T15:21:19.638Z,9.35
2019-05-18T15:23:50.108Z,11.97
2019-05-18T15:26:20.358Z,12.73
2019-05-18T15:28:50.796Z,8.75
2019-05-18T15:31:23.808Z,9.60
2019-05-18T15:33:53.102Z,10.82
2019-05-18T15:36:23.405Z,9.03
2019-05-18T15:38:53.699Z,14.65
2019-05-18T15:41:24.386Z,7.60
2019-05-18T15:43:54.786Z,10.80
2019-05-18T15:46:25.165Z,9.60
2019-05-18T15:48:55.921Z,10.05
2019-05-18T15:51:26.186Z,14.20
2019-05-18T15:53:57.226Z,10.03
2019-05-18T15:56:29.019Z,10.05
2019-05-18T15:58:59.634Z,9.33
2019-05-18T16:01:30.669Z,10.13
2019-05-18T16:04:01.122Z,10.30
2019-05-18T16:06:33.808Z,7.10
2019-05-18T16:09:04.988Z,8.85
2019-05-18T16:11:35.453Z,11.48
2019-05-18T16:14:06.037Z,9.93
2019-05-18T16:16:36.511Z,9.10
2019-05-18T16:19:09.114Z,11.18
2019-05-18T16:21:39.375Z,8.35
2019-05-18T16:24:10.011Z,15.30
2019-05-18T16:26:40.304Z,9.20
2019-05-18T16:29:10.599Z,10.55
2019-05-18T16:31:41.281Z,12.07
2019-05-18T16:34:11.623Z,10.58
2019-05-18T16:36:41.934Z,19.12
2019-05-18T16:39:12.351Z,15.70
2019-05-18T16:41:42.669Z,12.90
2019-05-18T16:44:12.923Z,11.70
2019-05-18T16:46:43.823Z,7.55
2019-05-18T16:49:14.229Z,9.83
2019-05-18T16:51:45.535Z,11.48
2019-05-18T16:54:15.813Z,10.45
2019-05-18T16:56:46.123Z,14.07
2019-05-18T16:59:16.365Z,10.78
2019-05-18T17:01:46.827Z,10.23
2019-05-18T17:04:17.107Z,10.58
2019-05-18T17:06:47.357Z,10.38
2019-05-18T17:09:18.909Z,11.45
2019-05-18T17:11:49.735Z,10.90
2019-05-18T17:14:20.595Z,12.37
2019-05-18T17:16:52.096Z,14.47
2019-05-18T17:19:22.349Z,12.37
2019-05-18T17:21:53.499Z,13.85
2019-05-18T17:24:23.912Z,14.45
2019-05-18T17:26:54.495Z,11.95
2019-05-18T17:29:24.832Z,12.35
2019-05-18T17:31:56.149Z,12.07
2019-05-18T17:34:26.326Z,19.12
2019-05-18T17:36:56.598Z,14.60
2019-05-18T17:39:27.183Z,15.75
2019-05-18T17:41:57.523Z,17.07
2019-05-18T17:44:27.785Z,22.73
2019-05-18T17:46:58.402Z,22.98
2019-05-18T17:49:28.766Z,18.82
2019-05-18T17:52:00.356Z,15.18
2019-05-18T17:54:31.397Z,17.35
2019-05-18T17:57:08.347Z,14.07
2019-05-18T17:59:34.539Z,17.57
2019-05-18T18:02:05.007Z,16.25
2019-05-18T18:04:35.535Z,18.52
2019-05-18T18:07:05.893Z,18.10
2019-05-18T18:09:36.199Z,17.40
2019-05-18T18:12:06.876Z,16.70
2019-05-18T18:14:38.195Z,24.65
2019-05-18T18:17:08.728Z,18.70
2019-05-18T18:19:39.216Z,18.15
2019-05-18T18:22:09.827Z,14.85
2019-05-18T18:24:40.308Z,18.80
2019-05-18T18:27:24.159Z,19.07
2019-05-18T18:29:42.537Z,17.82
2019-05-18T18:32:12.770Z,17.30
2019-05-18T18:34:43.284Z,18.73
2019-05-18T18:37:13.541Z,20.02
2019-05-18T18:39:43.718Z,17.80
2019-05-18T18:42:13.990Z,15.40
2019-05-18T18:44:44.335Z,17.80
2019-05-18T18:47:14.621Z,18.48
2019-05-18T18:49:44.919Z,15.90
2019-05-18T18:52:15.542Z,21.75
2019-05-18T18:54:45.867Z,17.87
2019-05-18T18:57:18.254Z,16.42
2019-05-18T18:59:48.531Z,20.27
2019-05-18T19:02:18.976Z,19.05
2019-05-18T19:04:49.723Z,18.75
2019-05-18T19:07:19.962Z,17.92
2019-05-18T19:09:50.182Z,20.20
2019-05-18T19:12:20.488Z,18.70
2019-05-18T19:14:50.918Z,20.37
2019-05-18T19:17:21.193Z,20.52
2019-05-18T19:19:51.494Z,21.05
2019-05-18T19:22:21.992Z,21.25
2019-05-18T19:24:55.494Z,19.15
2019-05-18T19:27:24.276Z,19.27
2019-05-18T19:29:54.530Z,18.87
2019-05-18T19:32:24.835Z,17.07
2019-05-18T19:34:55.179Z,21.75
2019-05-18T19:37:26.531Z,16.77
2019-05-18T19:39:56.927Z,27.80
2019-05-18T19:42:27.362Z,15.75
2019-05-18T19:44:58.810Z,18.12
2019-05-18T19:47:29.093Z,21.65
2019-05-18T19:49:59.866Z,17.70
2019-05-18T19:52:33.672Z,20.62
2019-05-18T19:55:04.346Z,17.77
2019-05-18T19:57:34.581Z,18.23
2019-05-18T20:00:05.198Z,17.92
2019-05-18T20:02:37.128Z,16.17
2019-05-18T20:05:09.315Z,16.12
2019-05-18T20:07:39.912Z,16.48
2019-05-18T20:10:11.170Z,23.87
2019-05-18T20:12:41.488Z,16.97
2019-05-18T20:15:12.775Z,21.25
2019-05-18T20:17:43.358Z,16.15
2019-05-18T20:20:14.616Z,16.42
2019-05-18T20:22:44.927Z,16.02
2019-05-18T20:25:15.298Z,18.85
2019-05-18T20:27:46.428Z,17.45
2019-05-18T20:30:17.559Z,16.02
2019-05-18T20:32:47.975Z,17.05
2019-05-18T20:35:18.558Z,16.10
2019-05-18T20:37:49.137Z,16.20
2019-05-18T20:40:19.548Z,17.40
2019-05-18T20:42:50.192Z,18.32
2019-05-18T20:45:20.916Z,14.90
2019-05-18T20:47:51.875Z,15.68
2019-05-18T20:50:22.182Z,17.87
2019-05-18T20:52:52.530Z,14.03
2019-05-18T20:55:25.724Z,15.95
2019-05-18T20:57:56.455Z,17.02
2019-05-18T21:00:27.896Z,18.52
2019-05-18T21:03:03.458Z,21.05
2019-05-18T21:05:39.383Z,17.50
2019-05-18T21:08:09.602Z,15.23
2019-05-18T21:10:39.842Z,17.37
2019-05-18T21:13:10.372Z,15.85
2019-05-18T21:15:40.621Z,14.30
2019-05-18T21:18:10.819Z,16.17
2019-05-18T21:20:41.151Z,14.40
2019-05-18T21:23:11.419Z,15.30
2019-05-18T21:25:41.799Z,18.00
2019-05-18T21:28:12.073Z,14.93
2019-05-18T21:30:42.336Z,15.63
2019-05-18T21:33:13.039Z,12.37
2019-05-18T21:35:43.298Z,16.52
2019-05-18T21:38:13.759Z,13.68
2019-05-18T21:40:44.179Z,13.40
2019-05-18T21:43:14.431Z,17.17
2019-05-18T21:45:44.878Z,15.95
2019-05-18T21:48:15.159Z,15.63
2019-05-18T21:50:45.456Z,15.28
2019-05-18T21:53:15.717Z,20.30
2019-05-18T21:55:46.033Z,15.38
2019-05-18T21:58:16.282Z,14.33
2019-05-18T22:00:49.510Z,17.73
2019-05-18T22:03:19.911Z,16.93
2019-05-18T22:05:50.334Z,16.45
2019-05-18T22:08:20.603Z,16.15
2019-05-18T22:10:50.966Z,16.12
2019-05-18T22:13:21.293Z,18.05
2019-05-18T22:15:51.655Z,19.00
2019-05-18T22:18:24.527Z,14.50
2019-05-18T22:20:53.950Z,15.98
2019-05-18T22:23:24.203Z,13.55
2019-05-18T22:25:57.041Z,13.75
2019-05-18T22:28:26.848Z,18.17
2019-05-18T22:30:57.238Z,14.75
2019-05-18T22:33:27.564Z,17.00
2019-05-18T22:35:57.864Z,12.73
2019-05-18T22:38:28.168Z,12.55
2019-05-18T22:40:58.510Z,14.45
2019-05-18T22:43:28.834Z,15.63
2019-05-18T22:45:59.181Z,16.30
2019-05-18T22:48:40.793Z,12.18
2019-05-18T22:51:01.371Z,12.30
2019-05-18T22:53:31.739Z,16.55
2019-05-18T22:56:02.019Z,13.85
2019-05-18T22:58:32.340Z,15.00
2019-05-18T23:01:03.101Z,15.53
2019-05-18T23:03:33.362Z,14.55
2019-05-18T23:06:03.626Z,12.55
2019-05-18T23:08:33.989Z,14.98
2019-05-18T23:11:04.251Z,17.10
2019-05-18T23:13:34.521Z,12.15
2019-05-18T23:16:05.068Z,14.93
2019-05-18T23:18:35.338Z,15.58
2019-05-18T23:21:05.643Z,12.40
2019-05-18T23:23:36.566Z,16.30
2019-05-18T23:26:06.804Z,13.48
2019-05-18T23:28:37.400Z,14.03
2019-05-18T23:31:08.524Z,14.58
2019-05-18T23:33:38.816Z,15.00
2019-05-18T23:36:09.115Z,15.43
2019-05-18T23:38:39.376Z,14.58
2019-05-18T23:41:09.826Z,16.93
2019-05-18T23:43:40.136Z,15.30
2019-05-18T23:46:10.412Z,15.13
2019-05-18T23:48:40.760Z,14.60
2019-05-18T23:51:11.257Z,14.98
2019-05-18T23:53:41.466Z,13.80
2019-05-18T23:56:11.654Z,17.27
2019-05-18T23:58:42.214Z,13.40
